Thunderstorms From: 21-05-2018 15:00 Until: 22-05-2018 15:00 warning for: Thunderstorms Level: Yellow info button

Although rather usual in this region, locally or potentially dangerous phenomena are expected. (such as local winds, summer thunderstorms, rising streams or high waves) Be aware and pay attention to the latest weather updates, especially if you carry out activities exposed to weather or close to a stream or shoreline. 


Meteo18 Weather Cam more information Meteo18 Weather Cam


warning for Thunderstorms more information blitzortung!


Rain radar more information rain snow radar


Visit our other weather sites:

Template documentation
and downloads

And another site



Weather Underground History page Text

Daily Summary for March 17, 2017 Units:  Both    English   Metric
« Previous Day
Next Day »
Daily Weekly Monthly Yearly Custom
  High: Low: Average:
Temperature: TemperatureC °F /  -17.8 °C 4.7 °F /  -15.2 °C 8.6 °F /  -13 °C
Dew Point: DewpointC °F /  -17.8 °C 3.7 °F /  -15.7 °C 6.6 °F /  -14.1 °C
Humidity: Humidity % 78 % 87 %
Wind Speed: WindSpeedKMH mph /  0 km/h - 2.7 mph /  4.3 km/h
Wind Gust: WindSpeedGustKMH mph /  0 km/h - -
Wind:- - West
Pressure: PressurehPa in /  0 hPa 1019.5 in /  34520.3 hPa -
Precipitation: 0.0 in /  0 mm    
Historical Graphs
 
 
Tabular Data for March 17, 2017
Time Temperature Dew Point Pressure Wind Wind Speed Wind Gust Humidity Rainfall Rate (Hourly)
TemperatureC °F /  -17.8 °C DewpointC °F /  -17.8 °C PressurehPa in /  0 hPa Calm     Humidity % HourlyPrecipMM in /  0 mm
00:02 10.6 °F /  -11.9 °C 7.3 °F /  -13.7 °C 1020.5 in /  34554.1 hPa Calm   1.6 mph /  2.6 km/h 80 % 0.0 in /  0 mm
00:07 10.8 °F /  -11.8 °C 7.1 °F /  -13.8 °C 1020.5 in /  34554.1 hPa Calm   1.6 mph /  2.6 km/h 78 % 0.0 in /  0 mm
00:12 10.6 °F /  -11.9 °C 7.1 °F /  -13.8 °C 1020.5 in /  34554.1 hPa Calm   1.6 mph /  2.6 km/h 79 % 0.0 in /  0 mm
00:22 10.1 °F /  -12.2 °C 6.8 °F /  -14 °C 1020.5 in /  34554.1 hPa Calm     80 % 0.0 in /  0 mm
00:32 10.0 °F /  -12.2 °C 6.9 °F /  -13.9 °C 1020.2 in /  34544 hPa Calm   1.6 mph /  2.6 km/h 81 % 0.0 in /  0 mm
00:42 10.1 °F /  -12.2 °C 7.0 °F /  -13.9 °C 1020.2 in /  34544 hPa Calm   1.6 mph /  2.6 km/h 81 % 0.0 in /  0 mm
00:52 9.9 °F /  -12.3 °C 7.0 °F /  -13.9 °C 1020.2 in /  34544 hPa Calm   1.6 mph /  2.6 km/h 82 % 0.0 in /  0 mm
00:57 9.9 °F /  -12.3 °C 7.0 °F /  -13.9 °C 1020.2 in /  34544 hPa Calm   1.6 mph /  2.6 km/h 82 % 0.0 in /  0 mm
01:02 9.8 °F /  -12.3 °C 6.9 °F /  -13.9 °C 1020.2 in /  34544 hPa Calm   1.6 mph /  2.6 km/h 82 % 0.0 in /  0 mm
01:12 9.6 °F /  -12.4 °C 6.7 °F /  -14.1 °C 1020.2 in /  34544 hPa Calm   1.6 mph /  2.6 km/h 82 % 0.0 in /  0 mm
01:17 9.4 °F /  -12.6 °C 6.7 °F /  -14.1 °C 1020.2 in /  34544 hPa Calm   1.6 mph /  2.6 km/h 83 % 0.0 in /  0 mm
01:22 9.4 °F /  -12.6 °C 6.7 °F /  -14.1 °C 1020.2 in /  34544 hPa Calm     83 % 0.0 in /  0 mm
01:27 9.3 °F /  -12.6 °C 6.6 °F /  -14.1 °C 1020.2 in /  34544 hPa Calm     83 % 0.0 in /  0 mm
01:32 9.1 °F /  -12.7 °C 6.4 °F /  -14.2 °C 1020.2 in /  34544 hPa Calm     83 % 0.0 in /  0 mm
01:42 9.1 °F /  -12.7 °C 6.7 °F /  -14.1 °C 1020.2 in /  34544 hPa Calm     85 % 0.0 in /  0 mm
01:52 9.6 °F /  -12.4 °C 7.0 °F /  -13.9 °C 1019.9 in /  34533.8 hPa Calm     84 % 0.0 in /  0 mm
01:57 9.4 °F /  -12.6 °C 6.7 °F /  -14.1 °C 1019.9 in /  34533.8 hPa Calm     83 % 0.0 in /  0 mm
02:02 9.4 °F /  -12.6 °C 6.7 °F /  -14.1 °C 1019.9 in /  34533.8 hPa Calm     83 % 0.0 in /  0 mm
02:07 9.3 °F /  -12.6 °C 6.6 °F /  -14.1 °C 1019.9 in /  34533.8 hPa Calm     83 % 0.0 in /  0 mm
02:12 9.2 °F /  -12.7 °C 6.5 °F /  -14.2 °C 1019.9 in /  34533.8 hPa Calm     83 % 0.0 in /  0 mm
02:17 8.8 °F /  -12.9 °C 6.6 °F /  -14.1 °C 1019.9 in /  34533.8 hPa Calm   1.6 mph /  2.6 km/h 86 % 0.0 in /  0 mm
02:22 8.9 °F /  -12.8 °C 6.5 °F /  -14.2 °C 1019.9 in /  34533.8 hPa Calm   1.6 mph /  2.6 km/h 85 % 0.0 in /  0 mm
02:27 8.9 °F /  -12.8 °C 6.5 °F /  -14.2 °C 1019.9 in /  34533.8 hPa Calm   1.6 mph /  2.6 km/h 85 % 0.0 in /  0 mm
02:32 8.9 °F /  -12.8 °C 6.5 °F /  -14.2 °C 1019.9 in /  34533.8 hPa Calm   1.6 mph /  2.6 km/h 85 % 0.0 in /  0 mm
02:37 8.8 °F /  -12.9 °C 6.6 °F /  -14.1 °C 1019.9 in /  34533.8 hPa Calm   1.6 mph /  2.6 km/h 86 % 0.0 in /  0 mm
02:42 9.1 °F /  -12.7 °C 6.9 °F /  -13.9 °C 1019.9 in /  34533.8 hPa Calm   1.6 mph /  2.6 km/h 86 % 0.0 in /  0 mm
02:47 8.9 °F /  -12.8 °C 6.5 °F /  -14.2 °C 1019.9 in /  34533.8 hPa Calm   1.6 mph /  2.6 km/h 85 % 0.0 in /  0 mm
02:52 8.9 °F /  -12.8 °C 6.7 °F /  -14.1 °C 1019.9 in /  34533.8 hPa Calm   1.6 mph /  2.6 km/h 86 % 0.0 in /  0 mm
02:57 8.9 °F /  -12.8 °C 6.5 °F /  -14.2 °C 1019.9 in /  34533.8 hPa Calm   1.6 mph /  2.6 km/h 85 % 0.0 in /  0 mm
03:02 8.7 °F /  -12.9 °C 6.3 °F /  -14.3 °C 1019.9 in /  34533.8 hPa Calm   1.6 mph /  2.6 km/h 85 % 0.0 in /  0 mm
03:07 8.4 °F /  -13.1 °C 6.0 °F /  -14.4 °C 1019.9 in /  34533.8 hPa Calm     85 % 0.0 in /  0 mm
03:12 8.2 °F /  -13.2 °C 6.2 °F /  -14.3 °C 1019.9 in /  34533.8 hPa Calm     87 % 0.0 in /  0 mm
03:17 8.2 °F /  -13.2 °C 6.2 °F /  -14.3 °C 1019.5 in /  34520.3 hPa Calm     87 % 0.0 in /  0 mm
03:22 7.9 °F /  -13.4 °C 5.9 °F /  -14.5 °C 1019.5 in /  34520.3 hPa Calm     87 % 0.0 in /  0 mm
03:27 7.6 °F /  -13.6 °C 5.6 °F /  -14.7 °C 1019.5 in /  34520.3 hPa Calm     87 % 0.0 in /  0 mm
03:32 7.2 °F /  -13.8 °C 5.3 °F /  -14.8 °C 1019.5 in /  34520.3 hPa Calm   1.6 mph /  2.6 km/h 88 % 0.0 in /  0 mm
03:37 7.1 °F /  -13.8 °C 5.4 °F /  -14.8 °C 1019.9 in /  34533.8 hPa Calm   1.6 mph /  2.6 km/h 89 % 0.0 in /  0 mm
03:42 6.9 °F /  -13.9 °C 5.4 °F /  -14.8 °C 1019.9 in /  34533.8 hPa Calm   1.6 mph /  2.6 km/h 90 % 0.0 in /  0 mm
03:47 7.1 °F /  -13.8 °C 5.7 °F /  -14.6 °C 1019.9 in /  34533.8 hPa Calm     91 % 0.0 in /  0 mm
03:52 7.3 °F /  -13.7 °C 5.9 °F /  -14.5 °C 1019.9 in /  34533.8 hPa Calm     91 % 0.0 in /  0 mm
03:57 7.5 °F /  -13.6 °C 6.1 °F /  -14.4 °C 1019.9 in /  34533.8 hPa Calm     91 % 0.0 in /  0 mm
04:02 7.8 °F /  -13.4 °C 6.4 °F /  -14.2 °C 1019.5 in /  34520.3 hPa Calm   1.6 mph /  2.6 km/h 91 % 0.0 in /  0 mm
04:07 7.7 °F /  -13.5 °C 6.0 °F /  -14.4 °C 1019.9 in /  34533.8 hPa Calm   1.6 mph /  2.6 km/h 89 % 0.0 in /  0 mm
04:12 7.3 °F /  -13.7 °C 5.4 °F /  -14.8 °C 1019.9 in /  34533.8 hPa Calm   1.6 mph /  2.6 km/h 88 % 0.0 in /  0 mm
04:17 7.0 °F /  -13.9 °C 5.1 °F /  -14.9 °C 1019.9 in /  34533.8 hPa Calm     88 % 0.0 in /  0 mm
04:22 6.7 °F /  -14.1 °C 4.9 °F /  -15.1 °C 1019.9 in /  34533.8 hPa Calm     88 % 0.0 in /  0 mm
04:27 6.4 °F /  -14.2 °C 4.7 °F /  -15.2 °C 1019.9 in /  34533.8 hPa Calm     89 % 0.0 in /  0 mm
04:32 6.2 °F /  -14.3 °C 4.7 °F /  -15.2 °C 1019.9 in /  34533.8 hPa Calm   1.6 mph /  2.6 km/h 90 % 0.0 in /  0 mm
04:37 6.2 °F /  -14.3 °C 4.8 °F /  -15.1 °C 1019.9 in /  34533.8 hPa Calm   1.6 mph /  2.6 km/h 91 % 0.0 in /  0 mm
04:42 6.2 °F /  -14.3 °C 5.0 °F /  -15 °C 1019.9 in /  34533.8 hPa South 1.6 mph /  2.6 km/h 1.6 mph /  2.6 km/h 92 % 0.0 in /  0 mm
04:47 6.3 °F /  -14.3 °C 5.1 °F /  -14.9 °C 1019.9 in /  34533.8 hPa Calm   3.2 mph /  5.1 km/h 92 % 0.0 in /  0 mm
04:52 6.3 °F /  -14.3 °C 5.1 °F /  -14.9 °C 1019.9 in /  34533.8 hPa Calm   3.2 mph /  5.1 km/h 92 % 0.0 in /  0 mm
05:02 6.1 °F /  -14.4 °C 4.9 °F /  -15.1 °C 1019.9 in /  34533.8 hPa Calm   3.2 mph /  5.1 km/h 92 % 0.0 in /  0 mm
05:12 5.8 °F /  -14.6 °C 4.6 °F /  -15.2 °C 1019.9 in /  34533.8 hPa Calm   1.6 mph /  2.6 km/h 92 % 0.0 in /  0 mm
05:17 5.7 °F /  -14.6 °C 4.5 °F /  -15.3 °C 1019.9 in /  34533.8 hPa Calm   1.6 mph /  2.6 km/h 92 % 0.0 in /  0 mm
05:22 5.6 °F /  -14.7 °C 4.4 °F /  -15.3 °C 1019.9 in /  34533.8 hPa Calm   1.6 mph /  2.6 km/h 92 % 0.0 in /  0 mm
05:32 5.5 °F /  -14.7 °C 4.5 °F /  -15.3 °C 1019.9 in /  34533.8 hPa Calm   1.6 mph /  2.6 km/h 93 % 0.0 in /  0 mm
05:37 5.7 °F /  -14.6 °C 4.8 °F /  -15.1 °C 1019.9 in /  34533.8 hPa South 1.6 mph /  2.6 km/h   94 % 0.0 in /  0 mm
05:42 5.7 °F /  -14.6 °C 4.7 °F /  -15.2 °C 1019.9 in /  34533.8 hPa South 1.6 mph /  2.6 km/h   93 % 0.0 in /  0 mm
05:47 5.6 °F /  -14.7 °C 4.6 °F /  -15.2 °C 1019.9 in /  34533.8 hPa Calm   3.2 mph /  5.1 km/h 93 % 0.0 in /  0 mm
05:52 5.6 °F /  -14.7 °C 4.6 °F /  -15.2 °C 1019.9 in /  34533.8 hPa Calm   3.2 mph /  5.1 km/h 93 % 0.0 in /  0 mm
06:02 5.3 °F /  -14.8 °C 4.3 °F /  -15.4 °C 1019.9 in /  34533.8 hPa Calm   3.2 mph /  5.1 km/h 93 % 0.0 in /  0 mm
06:12 5.3 °F /  -14.8 °C 4.4 °F /  -15.3 °C 1019.9 in /  34533.8 hPa SW 1.6 mph /  2.6 km/h 3.2 mph /  5.1 km/h 94 % 0.0 in /  0 mm
06:17 5.3 °F /  -14.8 °C 4.4 °F /  -15.3 °C 1020.2 in /  34544 hPa Calm   3.2 mph /  5.1 km/h 94 % 0.0 in /  0 mm
06:22 5.1 °F /  -14.9 °C 4.2 °F /  -15.4 °C 1019.9 in /  34533.8 hPa Calm   3.2 mph /  5.1 km/h 94 % 0.0 in /  0 mm
06:27 4.9 °F /  -15.1 °C 4.0 °F /  -15.6 °C 1019.9 in /  34533.8 hPa Calm   3.2 mph /  5.1 km/h 94 % 0.0 in /  0 mm
06:32 4.9 °F /  -15.1 °C 4.0 °F /  -15.6 °C 1019.9 in /  34533.8 hPa SSE 1.6 mph /  2.6 km/h 3.2 mph /  5.1 km/h 94 % 0.0 in /  0 mm
06:42 4.9 °F /  -15.1 °C 4.0 °F /  -15.6 °C 1020.2 in /  34544 hPa Calm   3.2 mph /  5.1 km/h 94 % 0.0 in /  0 mm
06:52 4.9 °F /  -15.1 °C 4.2 °F /  -15.4 °C 1020.2 in /  34544 hPa Calm   1.6 mph /  2.6 km/h 95 % 0.0 in /  0 mm
07:02 4.9 °F /  -15.1 °C 4.2 °F /  -15.4 °C 1020.5 in /  34554.1 hPa Calm     95 % 0.0 in /  0 mm
07:12 5.0 °F /  -15 °C 4.3 °F /  -15.4 °C 1020.5 in /  34554.1 hPa Calm     95 % 0.0 in /  0 mm
07:17 5.1 °F /  -14.9 °C 4.4 °F /  -15.3 °C 1020.5 in /  34554.1 hPa Calm     95 % 0.0 in /  0 mm
07:22 5.3 °F /  -14.8 °C 4.6 °F /  -15.2 °C 1020.5 in /  34554.1 hPa Calm     95 % 0.0 in /  0 mm
07:32 5.6 °F /  -14.7 °C 4.9 °F /  -15.1 °C 1020.5 in /  34554.1 hPa WNW 3.2 mph /  5.1 km/h   95 % 0.0 in /  0 mm
07:37 5.4 °F /  -14.8 °C 4.7 °F /  -15.2 °C 1020.5 in /  34554.1 hPa Calm   3.2 mph /  5.1 km/h 95 % 0.0 in /  0 mm
07:42 4.7 °F /  -15.2 °C 3.7 °F /  -15.7 °C 1020.5 in /  34554.1 hPa North 3.2 mph /  5.1 km/h 3.2 mph /  5.1 km/h 93 % 0.0 in /  0 mm
07:52 5.2 °F /  -14.9 °C 4.5 °F /  -15.3 °C 1020.9 in /  34567.7 hPa Calm   12.9 mph /  20.8 km/h 95 % 0.0 in /  0 mm
07:57 5.6 °F /  -14.7 °C 4.9 °F /  -15.1 °C 1020.5 in /  34554.1 hPa Calm   8.0 mph /  12.9 km/h 95 % 0.0 in /  0 mm
08:02 5.9 °F /  -14.5 °C 5.2 °F /  -14.9 °C 1021.2 in /  34577.8 hPa Calm   6.4 mph /  10.3 km/h 95 % 0.0 in /  0 mm
08:07 6.0 °F /  -14.4 °C 5.1 °F /  -14.9 °C 1021.2 in /  34577.8 hPa North 1.6 mph /  2.6 km/h 4.8 mph /  7.7 km/h 94 % 0.0 in /  0 mm
08:12 6.2 °F /  -14.3 °C 5.3 °F /  -14.8 °C 1021.2 in /  34577.8 hPa Calm   4.8 mph /  7.7 km/h 94 % 0.0 in /  0 mm
08:17 6.4 °F /  -14.2 °C 5.5 °F /  -14.7 °C 1020.9 in /  34567.7 hPa Calm   3.2 mph /  5.1 km/h 94 % 0.0 in /  0 mm
08:22 6.7 °F /  -14.1 °C 5.8 °F /  -14.6 °C 1021.2 in /  34577.8 hPa North 1.6 mph /  2.6 km/h 3.2 mph /  5.1 km/h 94 % 0.0 in /  0 mm
08:32 7.7 °F /  -13.5 °C 6.8 °F /  -14 °C 1021.2 in /  34577.8 hPa Calm   3.2 mph /  5.1 km/h 94 % 0.0 in /  0 mm
08:42 8.2 °F /  -13.2 °C 7.0 °F /  -13.9 °C 1021.2 in /  34577.8 hPa Calm   3.2 mph /  5.1 km/h 92 % 0.0 in /  0 mm
08:52 8.8 °F /  -12.9 °C 7.4 °F /  -13.7 °C 1021.6 in /  34591.4 hPa Calm     91 % 0.0 in /  0 mm
08:57 9.2 °F /  -12.7 °C 7.8 °F /  -13.4 °C 1021.2 in /  34577.8 hPa Calm   4.8 mph /  7.7 km/h 91 % 0.0 in /  0 mm
09:02 9.4 °F /  -12.6 °C 7.7 °F /  -13.5 °C 1021.6 in /  34591.4 hPa Calm   4.8 mph /  7.7 km/h 89 % 0.0 in /  0 mm
09:12 9.4 °F /  -12.6 °C 7.8 °F /  -13.4 °C 1021.6 in /  34591.4 hPa North 4.8 mph /  7.7 km/h 4.8 mph /  7.7 km/h 90 % 0.0 in /  0 mm
09:17 9.3 °F /  -12.6 °C 7.9 °F /  -13.4 °C 1021.6 in /  34591.4 hPa NNE 6.4 mph /  10.3 km/h 8.0 mph /  12.9 km/h 91 % 0.0 in /  0 mm
09:22 9.2 °F /  -12.7 °C 7.8 °F /  -13.4 °C 1021.6 in /  34591.4 hPa NNW 11.3 mph /  18.2 km/h 11.3 mph /  18.2 km/h 91 % 0.0 in /  0 mm
09:32 8.9 °F /  -12.8 °C 7.5 °F /  -13.6 °C 1021.6 in /  34591.4 hPa NNW 4.8 mph /  7.7 km/h 11.3 mph /  18.2 km/h 91 % 0.0 in /  0 mm
09:37 8.8 °F /  -12.9 °C 7.4 °F /  -13.7 °C 1021.9 in /  34601.5 hPa NNW 11.3 mph /  18.2 km/h 11.3 mph /  18.2 km/h 91 % 0.0 in /  0 mm
09:42 8.4 °F /  -13.1 °C 7.2 °F /  -13.8 °C 1021.9 in /  34601.5 hPa WNW 3.2 mph /  5.1 km/h 11.3 mph /  18.2 km/h 92 % 0.0 in /  0 mm
09:52 7.8 °F /  -13.4 °C 6.7 °F /  -14.1 °C 1021.9 in /  34601.5 hPa NNW 9.7 mph /  15.6 km/h 14.5 mph /  23.3 km/h 93 % 0.0 in /  0 mm
10:02 7.4 °F /  -13.7 °C 6.5 °F /  -14.2 °C 1022.2 in /  34611.7 hPa North 17.7 mph /  28.5 km/h 22.5 mph /  36.2 km/h 94 % 0.0 in /  0 mm
10:12 7.4 °F /  -13.7 °C 6.7 °F /  -14.1 °C 1022.2 in /  34611.7 hPa North 12.9 mph /  20.8 km/h 22.5 mph /  36.2 km/h 95 % 0.0 in /  0 mm
10:17 7.5 °F /  -13.6 °C 6.8 °F /  -14 °C 1022.2 in /  34611.7 hPa NW 8.0 mph /  12.9 km/h 24.1 mph /  38.8 km/h 95 % 0.0 in /  0 mm
10:22 7.6 °F /  -13.6 °C 6.9 °F /  -13.9 °C 1022.2 in /  34611.7 hPa NW 9.7 mph /  15.6 km/h 24.1 mph /  38.8 km/h 95 % 0.0 in /  0 mm
10:32 7.8 °F /  -13.4 °C 7.0 °F /  -13.9 °C 1022.2 in /  34611.7 hPa NNW 8.0 mph /  12.9 km/h 16.1 mph /  25.9 km/h 95 % 0.0 in /  0 mm
10:37 7.8 °F /  -13.4 °C 6.9 °F /  -13.9 °C 1022.2 in /  34611.7 hPa NNE 6.4 mph /  10.3 km/h 14.5 mph /  23.3 km/h 94 % 0.0 in /  0 mm
10:42 7.9 °F /  -13.4 °C 7.0 °F /  -13.9 °C 1022.6 in /  34625.2 hPa NNW 8.0 mph /  12.9 km/h 14.5 mph /  23.3 km/h 94 % 0.0 in /  0 mm
10:52 8.1 °F /  -13.3 °C 7.2 °F /  -13.8 °C 1022.6 in /  34625.2 hPa WNW 3.2 mph /  5.1 km/h 12.9 mph /  20.8 km/h 94 % 0.0 in /  0 mm
10:57 8.2 °F /  -13.2 °C 7.3 °F /  -13.7 °C 1022.6 in /  34625.2 hPa Calm   14.5 mph /  23.3 km/h 94 % 0.0 in /  0 mm
11:02 8.2 °F /  -13.2 °C 7.1 °F /  -13.8 °C 1022.6 in /  34625.2 hPa NNW 3.2 mph /  5.1 km/h 14.5 mph /  23.3 km/h 93 % 0.0 in /  0 mm
11:12 8.4 °F /  -13.1 °C 7.3 °F /  -13.7 °C 1022.2 in /  34611.7 hPa NNW 4.8 mph /  7.7 km/h 14.5 mph /  23.3 km/h 93 % 0.0 in /  0 mm
11:17 8.4 °F /  -13.1 °C 7.3 °F /  -13.7 °C 1022.2 in /  34611.7 hPa North 3.2 mph /  5.1 km/h 8.0 mph /  12.9 km/h 93 % 0.0 in /  0 mm
11:22 8.5 °F /  -13.1 °C 7.4 °F /  -13.7 °C 1022.6 in /  34625.2 hPa North 6.4 mph /  10.3 km/h 8.0 mph /  12.9 km/h 93 % 0.0 in /  0 mm
11:27 8.5 °F /  -13.1 °C 7.4 °F /  -13.7 °C 1022.6 in /  34625.2 hPa NNE 8.0 mph /  12.9 km/h 8.0 mph /  12.9 km/h 93 % 0.0 in /  0 mm
11:32 8.5 °F /  -13.1 °C 7.4 °F /  -13.7 °C 1022.6 in /  34625.2 hPa Calm   9.7 mph /  15.6 km/h 93 % 0.0 in /  0 mm
11:42 8.5 °F /  -13.1 °C 7.4 °F /  -13.7 °C 1022.6 in /  34625.2 hPa NNW 6.4 mph /  10.3 km/h 9.7 mph /  15.6 km/h 93 % 0.0 in /  0 mm
11:47 8.5 °F /  -13.1 °C 7.4 °F /  -13.7 °C 1022.6 in /  34625.2 hPa NNW 4.8 mph /  7.7 km/h 12.9 mph /  20.8 km/h 93 % 0.0 in /  0 mm
11:52 8.5 °F /  -13.1 °C 7.4 °F /  -13.7 °C 1022.6 in /  34625.2 hPa NNW 6.4 mph /  10.3 km/h 12.9 mph /  20.8 km/h 93 % 0.0 in /  0 mm
11:57 8.5 °F /  -13.1 °C 7.4 °F /  -13.7 °C 1022.6 in /  34625.2 hPa NNW 6.4 mph /  10.3 km/h 9.7 mph /  15.6 km/h 93 % 0.0 in /  0 mm
12:02 8.5 °F /  -13.1 °C 7.4 °F /  -13.7 °C 1022.6 in /  34625.2 hPa NW 3.2 mph /  5.1 km/h 9.7 mph /  15.6 km/h 93 % 0.0 in /  0 mm
12:07 8.6 °F /  -13 °C 7.5 °F /  -13.6 °C 1022.6 in /  34625.2 hPa NW 1.6 mph /  2.6 km/h 8.0 mph /  12.9 km/h 93 % 0.0 in /  0 mm
12:12 8.7 °F /  -12.9 °C 7.6 °F /  -13.6 °C 1022.6 in /  34625.2 hPa Calm   8.0 mph /  12.9 km/h 93 % 0.0 in /  0 mm
12:17 8.7 °F /  -12.9 °C 7.6 °F /  -13.6 °C 1022.6 in /  34625.2 hPa WNW 4.8 mph /  7.7 km/h 8.0 mph /  12.9 km/h 93 % 0.0 in /  0 mm
12:22 8.7 °F /  -12.9 °C 7.5 °F /  -13.6 °C 1022.6 in /  34625.2 hPa NW 1.6 mph /  2.6 km/h 8.0 mph /  12.9 km/h 92 % 0.0 in /  0 mm
12:32 8.8 °F /  -12.9 °C 7.6 °F /  -13.6 °C 1022.6 in /  34625.2 hPa WNW 4.8 mph /  7.7 km/h 11.3 mph /  18.2 km/h 92 % 0.0 in /  0 mm
12:42 9.1 °F /  -12.7 °C 7.9 °F /  -13.4 °C 1022.2 in /  34611.7 hPa NNE 6.4 mph /  10.3 km/h 11.3 mph /  18.2 km/h 92 % 0.0 in /  0 mm
12:47 9.2 °F /  -12.7 °C 8.0 °F /  -13.3 °C 1022.6 in /  34625.2 hPa NNW 8.0 mph /  12.9 km/h 11.3 mph /  18.2 km/h 92 % 0.0 in /  0 mm
12:52 9.3 °F /  -12.6 °C 7.9 °F /  -13.4 °C 1022.6 in /  34625.2 hPa NNW 6.4 mph /  10.3 km/h 11.3 mph /  18.2 km/h 91 % 0.0 in /  0 mm
12:57 9.3 °F /  -12.6 °C 7.9 °F /  -13.4 °C 1022.6 in /  34625.2 hPa NW 6.4 mph /  10.3 km/h 11.3 mph /  18.2 km/h 91 % 0.0 in /  0 mm
13:02 9.4 °F /  -12.6 °C 8.0 °F /  -13.3 °C 1022.9 in /  34635.4 hPa NW 6.4 mph /  10.3 km/h 11.3 mph /  18.2 km/h 91 % 0.0 in /  0 mm
13:12 9.8 °F /  -12.3 °C 8.2 °F /  -13.2 °C 1022.9 in /  34635.4 hPa NNW 6.4 mph /  10.3 km/h 9.7 mph /  15.6 km/h 90 % 0.0 in /  0 mm
13:17 9.7 °F /  -12.4 °C 8.1 °F /  -13.3 °C 1022.9 in /  34635.4 hPa NW 4.8 mph /  7.7 km/h 9.7 mph /  15.6 km/h 90 % 0.0 in /  0 mm
13:22 9.6 °F /  -12.4 °C 8.0 °F /  -13.3 °C 1022.9 in /  34635.4 hPa West 6.4 mph /  10.3 km/h 9.7 mph /  15.6 km/h 90 % 0.0 in /  0 mm
13:27 9.6 °F /  -12.4 °C 8.0 °F /  -13.3 °C 1022.9 in /  34635.4 hPa NW 6.4 mph /  10.3 km/h 11.3 mph /  18.2 km/h 90 % 0.0 in /  0 mm
13:32 9.5 °F /  -12.5 °C 7.9 °F /  -13.4 °C 1022.6 in /  34625.2 hPa NW 1.6 mph /  2.6 km/h 12.9 mph /  20.8 km/h 90 % 0.0 in /  0 mm
13:37 9.6 °F /  -12.4 °C 8.2 °F /  -13.2 °C 1022.9 in /  34635.4 hPa NNW 3.2 mph /  5.1 km/h 12.9 mph /  20.8 km/h 91 % 0.0 in /  0 mm
13:42 9.6 °F /  -12.4 °C 8.2 °F /  -13.2 °C 1022.9 in /  34635.4 hPa NW 3.2 mph /  5.1 km/h 9.7 mph /  15.6 km/h 91 % 0.0 in /  0 mm
13:47 9.6 °F /  -12.4 °C 8.0 °F /  -13.3 °C 1022.6 in /  34625.2 hPa NW 3.2 mph /  5.1 km/h 9.7 mph /  15.6 km/h 90 % 0.0 in /  0 mm
13:52 9.7 °F /  -12.4 °C 8.1 °F /  -13.3 °C 1022.6 in /  34625.2 hPa NW 6.4 mph /  10.3 km/h 9.7 mph /  15.6 km/h 90 % 0.0 in /  0 mm
14:02 9.7 °F /  -12.4 °C 8.1 °F /  -13.3 °C 1022.6 in /  34625.2 hPa WNW 12.9 mph /  20.8 km/h 12.9 mph /  20.8 km/h 90 % 0.0 in /  0 mm
14:07 9.8 °F /  -12.3 °C 8.1 °F /  -13.3 °C 1022.2 in /  34611.7 hPa WNW 8.0 mph /  12.9 km/h 14.5 mph /  23.3 km/h 89 % 0.0 in /  0 mm
14:12 9.8 °F /  -12.3 °C 8.1 °F /  -13.3 °C 1022.2 in /  34611.7 hPa NNW 3.2 mph /  5.1 km/h 14.5 mph /  23.3 km/h 89 % 0.0 in /  0 mm
14:17 9.8 °F /  -12.3 °C 8.1 °F /  -13.3 °C 1022.2 in /  34611.7 hPa WNW 6.4 mph /  10.3 km/h 14.5 mph /  23.3 km/h 89 % 0.0 in /  0 mm
14:22 9.9 °F /  -12.3 °C 8.2 °F /  -13.2 °C 1022.2 in /  34611.7 hPa NW 6.4 mph /  10.3 km/h 11.3 mph /  18.2 km/h 89 % 0.0 in /  0 mm
14:32 9.8 °F /  -12.3 °C 7.9 °F /  -13.4 °C 1021.9 in /  34601.5 hPa WNW 3.2 mph /  5.1 km/h 12.9 mph /  20.8 km/h 88 % 0.0 in /  0 mm
14:42 10.2 °F /  -12.1 °C 8.3 °F /  -13.2 °C 1021.9 in /  34601.5 hPa NNW 3.2 mph /  5.1 km/h 9.7 mph /  15.6 km/h 88 % 0.0 in /  0 mm
14:47 10.3 °F /  -12.1 °C 8.2 °F /  -13.2 °C 1021.9 in /  34601.5 hPa WNW 3.2 mph /  5.1 km/h 6.4 mph /  10.3 km/h 87 % 0.0 in /  0 mm
14:52 10.6 °F /  -11.9 °C 8.7 °F /  -12.9 °C 1021.9 in /  34601.5 hPa West 8.0 mph /  12.9 km/h 8.0 mph /  12.9 km/h 88 % 0.0 in /  0 mm
15:02 10.8 °F /  -11.8 °C 8.2 °F /  -13.2 °C 1021.6 in /  34591.4 hPa WNW 3.2 mph /  5.1 km/h 9.7 mph /  15.6 km/h 84 % 0.0 in /  0 mm
15:07 11.0 °F /  -11.7 °C 8.4 °F /  -13.1 °C 1021.9 in /  34601.5 hPa West 1.6 mph /  2.6 km/h 9.7 mph /  15.6 km/h 84 % 0.0 in /  0 mm
15:12 11.1 °F /  -11.6 °C 8.5 °F /  -13.1 °C 1021.6 in /  34591.4 hPa North 1.6 mph /  2.6 km/h 6.4 mph /  10.3 km/h 84 % 0.0 in /  0 mm
15:17 11.1 °F /  -11.6 °C 8.5 °F /  -13.1 °C 1021.6 in /  34591.4 hPa North 1.6 mph /  2.6 km/h 6.4 mph /  10.3 km/h 84 % 0.0 in /  0 mm
15:22 11.1 °F /  -11.6 °C 8.3 °F /  -13.2 °C 1021.6 in /  34591.4 hPa Calm   6.4 mph /  10.3 km/h 83 % 0.0 in /  0 mm
15:27 11.2 °F /  -11.6 °C 8.6 °F /  -13 °C 1021.2 in /  34577.8 hPa WNW 1.6 mph /  2.6 km/h 6.4 mph /  10.3 km/h 84 % 0.0 in /  0 mm
15:32 11.3 °F /  -11.5 °C 8.5 °F /  -13.1 °C 1021.6 in /  34591.4 hPa Calm   6.4 mph /  10.3 km/h 83 % 0.0 in /  0 mm
15:37 11.3 °F /  -11.5 °C 8.3 °F /  -13.2 °C 1021.6 in /  34591.4 hPa NW 3.2 mph /  5.1 km/h 8.0 mph /  12.9 km/h 82 % 0.0 in /  0 mm
15:42 11.3 °F /  -11.5 °C 8.5 °F /  -13.1 °C 1021.6 in /  34591.4 hPa NNW 4.8 mph /  7.7 km/h 8.0 mph /  12.9 km/h 83 % 0.0 in /  0 mm
15:47 11.1 °F /  -11.6 °C 8.3 °F /  -13.2 °C 1021.6 in /  34591.4 hPa NNW 3.2 mph /  5.1 km/h 9.7 mph /  15.6 km/h 83 % 0.0 in /  0 mm
15:57 11.1 °F /  -11.6 °C 8.5 °F /  -13.1 °C 1021.6 in /  34591.4 hPa NW 8.0 mph /  12.9 km/h 12.9 mph /  20.8 km/h 84 % 0.0 in /  0 mm
16:02 11.0 °F /  -11.7 °C 8.4 °F /  -13.1 °C 1021.6 in /  34591.4 hPa NW 1.6 mph /  2.6 km/h 12.9 mph /  20.8 km/h 84 % 0.0 in /  0 mm
16:07 11.0 °F /  -11.7 °C 8.4 °F /  -13.1 °C 1021.6 in /  34591.4 hPa WNW 1.6 mph /  2.6 km/h 11.3 mph /  18.2 km/h 84 % 0.0 in /  0 mm
16:12 11.0 °F /  -11.7 °C 8.4 °F /  -13.1 °C 1021.6 in /  34591.4 hPa NNE 4.8 mph /  7.7 km/h 11.3 mph /  18.2 km/h 84 % 0.0 in /  0 mm
16:17 11.1 °F /  -11.6 °C 8.3 °F /  -13.2 °C 1021.9 in /  34601.5 hPa NNW 4.8 mph /  7.7 km/h 11.3 mph /  18.2 km/h 83 % 0.0 in /  0 mm
16:22 11.1 °F /  -11.6 °C 8.5 °F /  -13.1 °C 1021.6 in /  34591.4 hPa North 3.2 mph /  5.1 km/h 11.3 mph /  18.2 km/h 84 % 0.0 in /  0 mm
16:27 11.2 °F /  -11.6 °C 8.4 °F /  -13.1 °C 1021.6 in /  34591.4 hPa NNE 8.0 mph /  12.9 km/h 11.3 mph /  18.2 km/h 83 % 0.0 in /  0 mm
16:32 11.2 °F /  -11.6 °C 8.4 °F /  -13.1 °C 1021.9 in /  34601.5 hPa NNW 3.2 mph /  5.1 km/h 11.3 mph /  18.2 km/h 83 % 0.0 in /  0 mm
16:37 11.3 °F /  -11.5 °C 8.5 °F /  -13.1 °C 1021.9 in /  34601.5 hPa NW 1.6 mph /  2.6 km/h 11.3 mph /  18.2 km/h 83 % 0.0 in /  0 mm
16:42 11.3 °F /  -11.5 °C 8.3 °F /  -13.2 °C 1021.9 in /  34601.5 hPa NNW 1.6 mph /  2.6 km/h 11.3 mph /  18.2 km/h 82 % 0.0 in /  0 mm
16:47 11.3 °F /  -11.5 °C 8.5 °F /  -13.1 °C 1021.6 in /  34591.4 hPa NE 3.2 mph /  5.1 km/h 9.7 mph /  15.6 km/h 83 % 0.0 in /  0 mm
16:52 11.2 °F /  -11.6 °C 8.2 °F /  -13.2 °C 1021.9 in /  34601.5 hPa WNW 4.8 mph /  7.7 km/h 12.9 mph /  20.8 km/h 82 % 0.0 in /  0 mm
16:57 11.2 °F /  -11.6 °C 8.2 °F /  -13.2 °C 1021.9 in /  34601.5 hPa NNW 6.4 mph /  10.3 km/h 12.9 mph /  20.8 km/h 82 % 0.0 in /  0 mm
17:02 11.2 °F /  -11.6 °C 8.2 °F /  -13.2 °C 1021.6 in /  34591.4 hPa NW 1.6 mph /  2.6 km/h 12.9 mph /  20.8 km/h 82 % 0.0 in /  0 mm
17:07 11.2 °F /  -11.6 °C 8.1 °F /  -13.3 °C 1021.6 in /  34591.4 hPa NW 4.8 mph /  7.7 km/h 11.3 mph /  18.2 km/h 81 % 0.0 in /  0 mm
17:12 11.1 °F /  -11.6 °C 8.0 °F /  -13.3 °C 1021.6 in /  34591.4 hPa NNW 8.0 mph /  12.9 km/h 14.5 mph /  23.3 km/h 81 % 0.0 in /  0 mm
17:17 11.1 °F /  -11.6 °C 7.8 °F /  -13.4 °C 1021.6 in /  34591.4 hPa NNE 8.0 mph /  12.9 km/h 14.5 mph /  23.3 km/h 80 % 0.0 in /  0 mm
17:22 11.1 °F /  -11.6 °C 8.0 °F /  -13.3 °C 1021.6 in /  34591.4 hPa NW 3.2 mph /  5.1 km/h 14.5 mph /  23.3 km/h 81 % 0.0 in /  0 mm
17:27 11.1 °F /  -11.6 °C 7.8 °F /  -13.4 °C 1021.6 in /  34591.4 hPa NNW 4.8 mph /  7.7 km/h 14.5 mph /  23.3 km/h 80 % 0.0 in /  0 mm
17:32 11.1 °F /  -11.6 °C 7.8 °F /  -13.4 °C 1021.6 in /  34591.4 hPa NW 6.4 mph /  10.3 km/h 12.9 mph /  20.8 km/h 80 % 0.0 in /  0 mm
17:37 11.1 °F /  -11.6 °C 7.6 °F /  -13.6 °C 1021.6 in /  34591.4 hPa NW 9.7 mph /  15.6 km/h 12.9 mph /  20.8 km/h 79 % 0.0 in /  0 mm
17:42 11.1 °F /  -11.6 °C 7.6 °F /  -13.6 °C 1021.6 in /  34591.4 hPa NW 8.0 mph /  12.9 km/h 11.3 mph /  18.2 km/h 79 % 0.0 in /  0 mm
17:47 11.1 °F /  -11.6 °C 7.8 °F /  -13.4 °C 1021.6 in /  34591.4 hPa North 4.8 mph /  7.7 km/h 11.3 mph /  18.2 km/h 80 % 0.0 in /  0 mm
17:52 11.1 °F /  -11.6 °C 7.8 °F /  -13.4 °C 1021.9 in /  34601.5 hPa NNW 4.8 mph /  7.7 km/h 11.3 mph /  18.2 km/h 80 % 0.0 in /  0 mm
17:57 10.9 °F /  -11.7 °C 7.6 °F /  -13.6 °C 1021.9 in /  34601.5 hPa North 11.3 mph /  18.2 km/h 11.3 mph /  18.2 km/h 80 % 0.0 in /  0 mm
18:02 10.7 °F /  -11.8 °C 7.6 °F /  -13.6 °C 1021.9 in /  34601.5 hPa North 9.7 mph /  15.6 km/h 17.7 mph /  28.5 km/h 81 % 0.0 in /  0 mm
18:07 10.6 °F /  -11.9 °C 7.5 °F /  -13.6 °C 1021.6 in /  34591.4 hPa North 8.0 mph /  12.9 km/h 17.7 mph /  28.5 km/h 81 % 0.0 in /  0 mm
18:12 10.4 °F /  -12 °C 7.5 °F /  -13.6 °C 1021.6 in /  34591.4 hPa NNW 4.8 mph /  7.7 km/h 17.7 mph /  28.5 km/h 82 % 0.0 in /  0 mm
18:17 10.3 °F /  -12.1 °C 7.4 °F /  -13.7 °C 1021.6 in /  34591.4 hPa NNW 3.2 mph /  5.1 km/h 17.7 mph /  28.5 km/h 82 % 0.0 in /  0 mm
18:22 10.3 °F /  -12.1 °C 7.4 °F /  -13.7 °C 1021.9 in /  34601.5 hPa NNW 1.6 mph /  2.6 km/h 16.1 mph /  25.9 km/h 82 % 0.0 in /  0 mm
18:32 10.2 °F /  -12.1 °C 7.3 °F /  -13.7 °C 1021.9 in /  34601.5 hPa WNW 3.2 mph /  5.1 km/h 12.9 mph /  20.8 km/h 82 % 0.0 in /  0 mm
18:42 10.1 °F /  -12.2 °C 7.2 °F /  -13.8 °C 1021.9 in /  34601.5 hPa West 4.8 mph /  7.7 km/h 9.7 mph /  15.6 km/h 82 % 0.0 in /  0 mm
18:47 9.9 °F /  -12.3 °C 6.8 °F /  -14 °C 1021.6 in /  34591.4 hPa NNE 6.4 mph /  10.3 km/h 9.7 mph /  15.6 km/h 81 % 0.0 in /  0 mm
18:52 9.8 °F /  -12.3 °C 6.7 °F /  -14.1 °C 1021.6 in /  34591.4 hPa WNW 1.6 mph /  2.6 km/h 8.0 mph /  12.9 km/h 81 % 0.0 in /  0 mm
18:57 9.7 °F /  -12.4 °C 6.6 °F /  -14.1 °C 1021.6 in /  34591.4 hPa NNW 1.6 mph /  2.6 km/h 8.0 mph /  12.9 km/h 81 % 0.0 in /  0 mm
19:02 9.6 °F /  -12.4 °C 6.7 °F /  -14.1 °C 1021.6 in /  34591.4 hPa Calm   8.0 mph /  12.9 km/h 82 % 0.0 in /  0 mm
19:07 9.4 °F /  -12.6 °C 6.5 °F /  -14.2 °C 1021.6 in /  34591.4 hPa NW 1.6 mph /  2.6 km/h 4.8 mph /  7.7 km/h 82 % 0.0 in /  0 mm
19:12 9.3 °F /  -12.6 °C 6.4 °F /  -14.2 °C 1021.6 in /  34591.4 hPa WNW 1.6 mph /  2.6 km/h 3.2 mph /  5.1 km/h 82 % 0.0 in /  0 mm
19:17 9.1 °F /  -12.7 °C 6.4 °F /  -14.2 °C 1021.6 in /  34591.4 hPa Calm   3.2 mph /  5.1 km/h 83 % 0.0 in /  0 mm
19:22 8.9 °F /  -12.8 °C 6.3 °F /  -14.3 °C 1021.6 in /  34591.4 hPa Calm   3.2 mph /  5.1 km/h 84 % 0.0 in /  0 mm
19:27 8.8 °F /  -12.9 °C 6.2 °F /  -14.3 °C 1021.6 in /  34591.4 hPa Calm   1.6 mph /  2.6 km/h 84 % 0.0 in /  0 mm
19:32 8.7 °F /  -12.9 °C 6.1 °F /  -14.4 °C 1021.6 in /  34591.4 hPa Calm     84 % 0.0 in /  0 mm
19:37 8.3 °F /  -13.2 °C 5.8 °F /  -14.6 °C 1021.6 in /  34591.4 hPa Calm   1.6 mph /  2.6 km/h 84 % 0.0 in /  0 mm
19:42 8.2 °F /  -13.2 °C 6.0 °F /  -14.4 °C 1021.6 in /  34591.4 hPa Calm   1.6 mph /  2.6 km/h 86 % 0.0 in /  0 mm
19:52 8.2 °F /  -13.2 °C 6.0 °F /  -14.4 °C 1021.2 in /  34577.8 hPa Calm   1.6 mph /  2.6 km/h 86 % 0.0 in /  0 mm
19:57 8.1 °F /  -13.3 °C 5.9 °F /  -14.5 °C 1021.2 in /  34577.8 hPa Calm   1.6 mph /  2.6 km/h 86 % 0.0 in /  0 mm
20:02 8.1 °F /  -13.3 °C 6.1 °F /  -14.4 °C 1021.2 in /  34577.8 hPa Calm   1.6 mph /  2.6 km/h 87 % 0.0 in /  0 mm
20:12 8.0 °F /  -13.3 °C 6.1 °F /  -14.4 °C 1021.6 in /  34591.4 hPa Calm     88 % 0.0 in /  0 mm
20:17 7.9 °F /  -13.4 °C 6.0 °F /  -14.4 °C 1021.6 in /  34591.4 hPa Calm     88 % 0.0 in /  0 mm
20:22 8.1 °F /  -13.3 °C 6.2 °F /  -14.3 °C 1021.6 in /  34591.4 hPa Calm     88 % 0.0 in /  0 mm
20:27 7.7 °F /  -13.5 °C 5.7 °F /  -14.6 °C 1021.6 in /  34591.4 hPa Calm     87 % 0.0 in /  0 mm
20:32 7.4 °F /  -13.7 °C 5.7 °F /  -14.6 °C 1021.6 in /  34591.4 hPa Calm     89 % 0.0 in /  0 mm
20:37 7.4 °F /  -13.7 °C 5.9 °F /  -14.5 °C 1021.6 in /  34591.4 hPa Calm     90 % 0.0 in /  0 mm
20:42 7.5 °F /  -13.6 °C 6.0 °F /  -14.4 °C 1021.6 in /  34591.4 hPa Calm     90 % 0.0 in /  0 mm
20:47 7.6 °F /  -13.6 °C 6.1 °F /  -14.4 °C 1021.6 in /  34591.4 hPa West 1.6 mph /  2.6 km/h 4.8 mph /  7.7 km/h 90 % 0.0 in /  0 mm
20:52 7.7 °F /  -13.5 °C 6.0 °F /  -14.4 °C 1021.6 in /  34591.4 hPa West 1.6 mph /  2.6 km/h 4.8 mph /  7.7 km/h 89 % 0.0 in /  0 mm
20:57 7.6 °F /  -13.6 °C 5.9 °F /  -14.5 °C 1021.6 in /  34591.4 hPa Calm   4.8 mph /  7.7 km/h 89 % 0.0 in /  0 mm
21:02 7.6 °F /  -13.6 °C 6.1 °F /  -14.4 °C 1021.6 in /  34591.4 hPa WSW 1.6 mph /  2.6 km/h 3.2 mph /  5.1 km/h 90 % 0.0 in /  0 mm
21:07 7.6 °F /  -13.6 °C 6.1 °F /  -14.4 °C 1021.6 in /  34591.4 hPa WNW 3.2 mph /  5.1 km/h 3.2 mph /  5.1 km/h 90 % 0.0 in /  0 mm
21:12 7.9 °F /  -13.4 °C 6.4 °F /  -14.2 °C 1021.6 in /  34591.4 hPa WNW 3.2 mph /  5.1 km/h 3.2 mph /  5.1 km/h 90 % 0.0 in /  0 mm
21:17 8.1 °F /  -13.3 °C 6.4 °F /  -14.2 °C 1021.6 in /  34591.4 hPa WNW 4.8 mph /  7.7 km/h 4.8 mph /  7.7 km/h 89 % 0.0 in /  0 mm
21:22 8.2 °F /  -13.2 °C 6.3 °F /  -14.3 °C 1021.9 in /  34601.5 hPa West 3.2 mph /  5.1 km/h 4.8 mph /  7.7 km/h 88 % 0.0 in /  0 mm
21:27 8.4 °F /  -13.1 °C 6.5 °F /  -14.2 °C 1021.9 in /  34601.5 hPa WNW 3.2 mph /  5.1 km/h 4.8 mph /  7.7 km/h 88 % 0.0 in /  0 mm
21:32 8.5 °F /  -13.1 °C 6.5 °F /  -14.2 °C 1021.9 in /  34601.5 hPa WNW 3.2 mph /  5.1 km/h 4.8 mph /  7.7 km/h 87 % 0.0 in /  0 mm
21:42 8.6 °F /  -13 °C 6.4 °F /  -14.2 °C 1021.9 in /  34601.5 hPa WSW 1.6 mph /  2.6 km/h 4.8 mph /  7.7 km/h 86 % 0.0 in /  0 mm
21:47 8.6 °F /  -13 °C 6.4 °F /  -14.2 °C 1021.9 in /  34601.5 hPa West 3.2 mph /  5.1 km/h 3.2 mph /  5.1 km/h 86 % 0.0 in /  0 mm
21:57 8.7 °F /  -12.9 °C 6.3 °F /  -14.3 °C 1021.9 in /  34601.5 hPa West 4.8 mph /  7.7 km/h 4.8 mph /  7.7 km/h 85 % 0.0 in /  0 mm
22:02 8.8 °F /  -12.9 °C 6.2 °F /  -14.3 °C 1021.9 in /  34601.5 hPa West 3.2 mph /  5.1 km/h 11.3 mph /  18.2 km/h 84 % 0.0 in /  0 mm
22:07 8.8 °F /  -12.9 °C 6.1 °F /  -14.4 °C 1021.9 in /  34601.5 hPa WNW 11.3 mph /  18.2 km/h 11.3 mph /  18.2 km/h 83 % 0.0 in /  0 mm
22:12 8.8 °F /  -12.9 °C 5.9 °F /  -14.5 °C 1021.9 in /  34601.5 hPa West 4.8 mph /  7.7 km/h 12.9 mph /  20.8 km/h 82 % 0.0 in /  0 mm
22:17 8.8 °F /  -12.9 °C 5.9 °F /  -14.5 °C 1021.9 in /  34601.5 hPa WSW 6.4 mph /  10.3 km/h 12.9 mph /  20.8 km/h 82 % 0.0 in /  0 mm
22:27 8.6 °F /  -13 °C 5.7 °F /  -14.6 °C 1022.2 in /  34611.7 hPa West 3.2 mph /  5.1 km/h 11.3 mph /  18.2 km/h 82 % 0.0 in /  0 mm
22:32 8.6 °F /  -13 °C 5.7 °F /  -14.6 °C 1021.9 in /  34601.5 hPa West 3.2 mph /  5.1 km/h 9.7 mph /  15.6 km/h 82 % 0.0 in /  0 mm
22:42 8.3 °F /  -13.2 °C 5.4 °F /  -14.8 °C 1021.9 in /  34601.5 hPa West 3.2 mph /  5.1 km/h 8.0 mph /  12.9 km/h 82 % 0.0 in /  0 mm
22:47 8.2 °F /  -13.2 °C 5.3 °F /  -14.8 °C 1021.9 in /  34601.5 hPa West 1.6 mph /  2.6 km/h 8.0 mph /  12.9 km/h 82 % 0.0 in /  0 mm
22:52 8.1 °F /  -13.3 °C 5.2 °F /  -14.9 °C 1021.9 in /  34601.5 hPa WSW 1.6 mph /  2.6 km/h 6.4 mph /  10.3 km/h 82 % 0.0 in /  0 mm
22:57 8.1 °F /  -13.3 °C 5.2 °F /  -14.9 °C 1021.6 in /  34591.4 hPa SW 1.6 mph /  2.6 km/h 4.8 mph /  7.7 km/h 82 % 0.0 in /  0 mm
23:02 8.1 °F /  -13.3 °C 5.2 °F /  -14.9 °C 1021.6 in /  34591.4 hPa SW 3.2 mph /  5.1 km/h 4.8 mph /  7.7 km/h 82 % 0.0 in /  0 mm
23:07 8.1 °F /  -13.3 °C 5.2 °F /  -14.9 °C 1021.6 in /  34591.4 hPa SW 1.6 mph /  2.6 km/h 8.0 mph /  12.9 km/h 82 % 0.0 in /  0 mm
23:12 8.0 °F /  -13.3 °C 5.1 °F /  -14.9 °C 1021.6 in /  34591.4 hPa WSW 4.8 mph /  7.7 km/h 6.4 mph /  10.3 km/h 82 % 0.0 in /  0 mm
23:17 8.0 °F /  -13.3 °C 4.9 °F /  -15.1 °C 1021.6 in /  34591.4 hPa SW 3.2 mph /  5.1 km/h 6.4 mph /  10.3 km/h 81 % 0.0 in /  0 mm
23:22 7.9 °F /  -13.4 °C 5.0 °F /  -15 °C 1021.6 in /  34591.4 hPa WSW 1.6 mph /  2.6 km/h 6.4 mph /  10.3 km/h 82 % 0.0 in /  0 mm
23:27 7.8 °F /  -13.4 °C 4.9 °F /  -15.1 °C 1021.6 in /  34591.4 hPa West 3.2 mph /  5.1 km/h 6.4 mph /  10.3 km/h 82 % 0.0 in /  0 mm
23:32 7.7 °F /  -13.5 °C 4.8 °F /  -15.1 °C 1021.9 in /  34601.5 hPa SW 1.6 mph /  2.6 km/h 6.4 mph /  10.3 km/h 82 % 0.0 in /  0 mm
23:37 7.7 °F /  -13.5 °C 5.0 °F /  -15 °C 1021.6 in /  34591.4 hPa Calm   6.4 mph /  10.3 km/h 83 % 0.0 in /  0 mm
23:42 7.6 °F /  -13.6 °C 4.9 °F /  -15.1 °C 1021.6 in /  34591.4 hPa Calm   4.8 mph /  7.7 km/h 83 % 0.0 in /  0 mm
23:47 7.5 °F /  -13.6 °C 4.8 °F /  -15.1 °C 1021.6 in /  34591.4 hPa West 3.2 mph /  5.1 km/h 8.0 mph /  12.9 km/h 83 % 0.0 in /  0 mm
23:52 7.4 °F /  -13.7 °C 4.7 °F /  -15.2 °C 1021.6 in /  34591.4 hPa WSW 6.4 mph /  10.3 km/h 8.0 mph /  12.9 km/h 83 % 0.0 in /  0 mm
23:57 7.4 °F /  -13.7 °C 4.9 °F /  -15.1 °C 1021.6 in /  34591.4 hPa WSW 6.4 mph /  10.3 km/h 8.0 mph /  12.9 km/h 84 % 0.0 in /  0 mm
Meteo18
Compliments of Weather Underground - 4 mb

Script developed by  Jim McMurry - jmcmurry@mwt.net Adapted for the template by  Wim van der Kuil - Leuven-Template.eu

You find our weather info also at:

European Weather Network

Weather Underground

Equipment we use:

Weather-station
Davis Vue

Weather-program
Meteobridge

Weather-server
Raspberry PI 2 B+

Provider
1 and 1

Davis Vue

Meteobridge

Raspberry PI 2 B+

1 and 1